Decoded Metar for KSUZ ( in ) (IATA:) | Meteo·Mobile Aviation Weather
aviador You're here:

KSUZ Decoded Metar

in
Report Time2020-02-22 22:15:00
UTC Time2020-02-22 22:23:47
Flight Rules vfr VFR
Wind150° at 06 kt
W.Decomp.*RWY 20: 3.9 kt HW 4.6 kt LCW
Visibility9999 m
Phenomena:N/A
Clouds:Broken 100 Hf
Expected CloudBase > 6,800 ft AGL from Temp-Dew spread
Ceiling10,000 ft
Temp12°C
Dew Point-5°C (30% RH)
AAT7.2°C
QNH1026 hPa
Raw Report
KSUZ 222215Z AUTO 15006KT 10SM BKN100 12/M05 A3030 RMK A01=

Extra information for KSUZ:More info

Social comments